createdAt,value
2018-02-04T15:33:32.286Z,80.61
2018-02-04T15:36:04.573Z,81.15
2018-02-04T15:38:35.830Z,82.93
2018-02-04T15:41:06.657Z,81.57
2018-02-04T15:43:37.715Z,81.03
2018-02-04T15:46:09.070Z,82.40
2018-02-04T15:48:40.001Z,81.85
2018-02-04T15:51:11.549Z,80.73
2018-02-04T15:53:42.820Z,80.63
2018-02-04T15:56:13.760Z,80.79
2018-02-04T15:58:48.828Z,81.47
2018-02-04T16:01:20.013Z,80.75
2018-02-04T16:03:51.357Z,80.10
2018-02-04T16:06:22.412Z,80.81
2018-02-04T16:08:54.140Z,80.77
2018-02-04T16:11:25.396Z,81.29
2018-02-04T16:13:56.276Z,80.27
2018-02-04T16:16:27.619Z,81.44
2018-02-04T16:18:58.689Z,81.13
2018-02-04T16:21:29.864Z,81.13
2018-02-04T16:24:00.789Z,81.49
2018-02-04T16:26:31.772Z,82.83
2018-02-04T16:29:03.010Z,82.29
2018-02-04T16:31:33.848Z,82.59
2018-02-04T16:34:04.733Z,81.86
2018-02-04T16:36:35.881Z,81.87
2018-02-04T16:39:07.089Z,82.37
2018-02-04T16:41:38.401Z,81.75
2018-02-04T16:44:10.503Z,83.05
2018-02-04T16:46:41.391Z,83.90
2018-02-04T16:49:12.493Z,83.94
2018-02-04T16:51:43.342Z,83.92
2018-02-04T16:54:14.733Z,83.82
2018-02-04T16:56:45.772Z,83.07
2018-02-04T16:59:16.624Z,84.33
2018-02-04T17:01:48.259Z,81.92
2018-02-04T17:04:19.419Z,83.50
2018-02-04T17:06:50.778Z,82.78
2018-02-04T17:09:21.869Z,82.31
2018-02-04T17:11:54.204Z,81.79
2018-02-04T17:14:25.108Z,81.12
2018-02-04T17:16:56.516Z,81.45
2018-02-04T17:19:28.220Z,81.89
2018-02-04T17:21:59.009Z,82.31
2018-02-04T17:24:30.280Z,83.03
2018-02-04T17:27:01.113Z,83.02
2018-02-04T17:29:32.045Z,82.83
2018-02-04T17:32:03.168Z,83.40
2018-02-04T17:34:34.204Z,82.79
2018-02-04T17:37:05.928Z,82.70
2018-02-04T17:39:36.940Z,86.31
2018-02-04T17:42:08.349Z,85.80
2018-02-04T17:44:39.533Z,85.15
2018-02-04T17:47:10.456Z,85.73
2018-02-04T17:49:41.511Z,86.26
2018-02-04T17:52:12.948Z,87.03
2018-02-04T17:54:43.912Z,87.25
2018-02-04T17:57:14.834Z,87.99
2018-02-04T17:59:46.017Z,84.95
2018-02-04T18:02:17.132Z,83.64
2018-02-04T18:04:48.057Z,84.09
2018-02-04T18:07:20.268Z,84.80
2018-02-04T18:09:51.224Z,83.20
2018-02-04T18:12:22.872Z,82.44
2018-02-04T18:14:53.742Z,81.97
2018-02-04T18:17:24.592Z,80.81
2018-02-04T18:19:56.207Z,81.21
2018-02-04T18:22:27.132Z,80.56
2018-02-04T18:24:58.108Z,79.90
2018-02-04T18:27:29.236Z,80.69
2018-02-04T18:30:00.094Z,80.47
2018-02-04T18:32:31.029Z,80.48
2018-02-04T18:35:02.213Z,79.65
2018-02-04T18:37:33.860Z,80.76
2018-02-04T18:40:05.041Z,82.16
2018-02-04T18:42:35.996Z,81.70
2018-02-04T18:45:07.064Z,81.62
2018-02-04T18:47:38.304Z,82.13
2018-02-04T18:50:09.637Z,83.79
2018-02-04T18:52:40.568Z,84.28
2018-02-04T18:55:11.825Z,86.49
2018-02-04T18:57:42.672Z,83.55
2018-02-04T19:00:13.917Z,82.14
2018-02-04T19:02:45.068Z,83.38
2018-02-04T19:05:15.936Z,85.29
2018-02-04T19:07:47.149Z,84.42
2018-02-04T19:10:18.060Z,85.71
2018-02-04T19:12:48.992Z,87.20
2018-02-04T19:15:20.076Z,88.49
2018-02-04T19:17:51.040Z,86.51
2018-02-04T19:20:21.886Z,85.94
2018-02-04T19:22:53.158Z,85.61
2018-02-04T19:25:23.935Z,87.12
2018-02-04T19:27:55.713Z,85.27
2018-02-04T19:30:26.884Z,86.20
2018-02-04T19:32:57.783Z,88.21
2018-02-04T19:35:29.028Z,87.41
2018-02-04T19:38:00.029Z,87.82
2018-02-04T19:40:30.979Z,88.61
2018-02-04T19:43:02.252Z,88.33
2018-02-04T19:45:33.235Z,87.93
2018-02-04T19:48:04.060Z,87.43
2018-02-04T19:50:37.467Z,85.69
2018-02-04T19:53:08.403Z,85.14
2018-02-04T19:55:39.330Z,84.33
2018-02-04T19:58:10.444Z,82.72
2018-02-04T20:00:41.380Z,82.42
2018-02-04T20:03:13.100Z,83.03
2018-02-04T20:05:44.026Z,84.45
2018-02-04T20:08:14.892Z,83.12
2018-02-04T20:10:46.116Z,81.31
2018-02-04T20:13:16.918Z,81.78
2018-02-04T20:15:47.698Z,81.27
2018-02-04T20:18:19.504Z,82.80
2018-02-04T20:20:50.493Z,84.71
2018-02-04T20:23:21.864Z,84.11
2018-02-04T20:25:53.042Z,82.89
2018-02-04T20:28:23.980Z,85.79
2018-02-04T20:30:55.724Z,85.92
2018-02-04T20:33:27.068Z,86.70
2018-02-04T20:35:57.945Z,87.59
2018-02-04T20:38:29.104Z,87.87
2018-02-04T20:41:00.037Z,87.54
2018-02-04T20:43:31.278Z,89.05
2018-02-04T20:46:02.413Z,89.11
2018-02-04T20:48:33.247Z,89.87
2018-02-04T20:51:04.143Z,90.25
2018-02-04T20:53:35.762Z,91.11
2018-02-04T20:56:06.636Z,91.51
2018-02-04T20:58:37.848Z,90.33
2018-02-04T21:01:08.643Z,91.82
2018-02-04T21:03:40.372Z,92.23
2018-02-04T21:06:11.589Z,92.52
2018-02-04T21:08:42.625Z,92.19
2018-02-04T21:11:13.509Z,89.77
2018-02-04T21:13:44.760Z,87.42
2018-02-04T21:16:16.445Z,85.25
2018-02-04T21:18:47.494Z,84.81
2018-02-04T21:21:18.475Z,83.16
2018-02-04T21:23:49.604Z,82.96
2018-02-04T21:26:21.254Z,81.96
2018-02-04T21:28:52.740Z,81.70
2018-02-04T21:31:23.632Z,83.15
2018-02-04T21:33:55.875Z,86.41
2018-02-04T21:36:26.908Z,89.43
2018-02-04T21:38:58.636Z,88.82
2018-02-04T21:41:30.212Z,85.69
2018-02-04T21:44:01.252Z,83.92
2018-02-04T21:46:33.126Z,82.08
2018-02-04T21:49:08.324Z,81.87
2018-02-04T21:51:39.696Z,81.23
2018-02-04T21:54:11.049Z,83.12
2018-02-04T21:56:42.100Z,82.75
2018-02-04T21:59:13.587Z,81.33
2018-02-04T22:01:44.667Z,80.81
2018-02-04T22:04:15.784Z,80.06
2018-02-04T22:06:47.168Z,79.93
2018-02-04T22:09:18.383Z,79.96
2018-02-04T22:11:49.530Z,79.35
2018-02-04T22:14:20.735Z,78.92
2018-02-04T22:16:51.652Z,79.73
2018-02-04T22:19:23.159Z,78.87
2018-02-04T22:21:54.324Z,78.12
2018-02-04T22:24:25.284Z,78.95
2018-02-04T22:26:56.579Z,79.74
2018-02-04T22:29:27.605Z,78.64
2018-02-04T22:31:58.480Z,80.02
2018-02-04T22:34:30.414Z,79.65
2018-02-04T22:37:01.293Z,78.92
2018-02-04T22:39:32.867Z,79.43
2018-02-04T22:42:05.077Z,78.11
2018-02-04T22:44:36.088Z,78.30
2018-02-04T22:47:07.475Z,77.81
2018-02-04T22:49:38.537Z,77.96
2018-02-04T22:52:10.892Z,78.67
2018-02-04T22:54:42.309Z,79.10
2018-02-04T22:57:14.656Z,78.78
2018-02-04T22:59:46.448Z,78.57
2018-02-04T23:02:17.434Z,79.03
2018-02-04T23:04:48.728Z,80.10
2018-02-04T23:07:20.334Z,79.34
2018-02-04T23:09:51.938Z,79.56
2018-02-04T23:12:23.434Z,79.45
2018-02-04T23:14:54.712Z,80.22
2018-02-04T23:17:26.143Z,80.42
2018-02-04T23:19:58.132Z,80.39
2018-02-04T23:22:29.036Z,80.02
2018-02-04T23:25:00.273Z,79.13
2018-02-04T23:27:31.568Z,79.56
2018-02-04T23:30:03.089Z,79.18
2018-02-04T23:32:34.368Z,78.44
2018-02-04T23:35:05.642Z,78.89
2018-02-04T23:37:36.661Z,78.02
2018-02-04T23:40:06.974Z,78.86
2018-02-04T23:42:38.097Z,78.54
2018-02-04T23:45:09.433Z,78.33
2018-02-04T23:47:40.300Z,77.95
2018-02-04T23:50:11.503Z,77.89
2018-02-04T23:52:42.328Z,79.27
2018-02-04T23:55:13.700Z,79.58
2018-02-04T23:57:44.993Z,79.14
